sensor_id;sensor_type;location;lat;lon;timestamp;P1;durP1;ratioP1;P2;durP2;ratioP2
4738;SDS011;2383;48.632;10.156;2023-05-29T00:02:18;12.73;;;7.03;;
4738;SDS011;2383;48.632;10.156;2023-05-29T00:06:20;12.40;;;7.18;;
4738;SDS011;2383;48.632;10.156;2023-05-29T00:10:22;11.65;;;6.90;;
4738;SDS011;2383;48.632;10.156;2023-05-29T00:14:24;11.60;;;7.30;;
4738;SDS011;2383;48.632;10.156;2023-05-29T00:18:26;10.40;;;6.80;;
4738;SDS011;2383;48.632;10.156;2023-05-29T00:22:28;11.60;;;6.47;;
4738;SDS011;2383;48.632;10.156;2023-05-29T00:26:30;10.77;;;5.95;;
4738;SDS011;2383;48.632;10.156;2023-05-29T00:30:33;10.68;;;6.03;;
4738;SDS011;2383;48.632;10.156;2023-05-29T00:34:35;9.00;;;5.82;;
4738;SDS011;2383;48.632;10.156;2023-05-29T00:38:37;8.80;;;5.55;;
4738;SDS011;2383;48.632;10.156;2023-05-29T00:42:39;8.85;;;5.47;;
4738;SDS011;2383;48.632;10.156;2023-05-29T00:46:41;10.68;;;5.68;;
4738;SDS011;2383;48.632;10.156;2023-05-29T00:50:43;11.68;;;5.50;;
4738;SDS011;2383;48.632;10.156;2023-05-29T00:54:46;11.70;;;5.40;;
4738;SDS011;2383;48.632;10.156;2023-05-29T00:58:49;9.48;;;5.10;;
4738;SDS011;2383;48.632;10.156;2023-05-29T01:02:52;7.88;;;5.13;;
4738;SDS011;2383;48.632;10.156;2023-05-29T01:06:55;8.88;;;4.72;;
4738;SDS011;2383;48.632;10.156;2023-05-29T01:28:42;8.70;;;5.00;;
4738;SDS011;2383;48.632;10.156;2023-05-29T01:32:49;8.48;;;5.22;;
4738;SDS011;2383;48.632;10.156;2023-05-29T01:36:52;12.55;;;5.07;;
4738;SDS011;2383;48.632;10.156;2023-05-29T01:40:56;6.75;;;4.65;;
4738;SDS011;2383;48.632;10.156;2023-05-29T01:44:58;10.52;;;5.43;;
4738;SDS011;2383;48.632;10.156;2023-05-29T01:49:01;8.05;;;5.03;;
4738;SDS011;2383;48.632;10.156;2023-05-29T01:53:04;8.77;;;4.75;;
4738;SDS011;2383;48.632;10.156;2023-05-29T01:57:06;8.13;;;4.90;;
4738;SDS011;2383;48.632;10.156;2023-05-29T02:01:09;7.72;;;4.70;;
4738;SDS011;2383;48.632;10.156;2023-05-29T02:05:12;7.55;;;5.05;;
4738;SDS011;2383;48.632;10.156;2023-05-29T02:09:15;11.73;;;5.28;;
4738;SDS011;2383;48.632;10.156;2023-05-29T02:13:18;10.90;;;5.00;;
4738;SDS011;2383;48.632;10.156;2023-05-29T02:17:20;7.90;;;4.63;;
4738;SDS011;2383;48.632;10.156;2023-05-29T02:21:22;8.82;;;4.68;;
4738;SDS011;2383;48.632;10.156;2023-05-29T02:25:24;9.90;;;4.88;;
4738;SDS011;2383;48.632;10.156;2023-05-29T02:29:26;6.60;;;4.47;;
4738;SDS011;2383;48.632;10.156;2023-05-29T02:33:28;7.57;;;4.55;;
4738;SDS011;2383;48.632;10.156;2023-05-29T02:37:31;7.28;;;4.68;;
4738;SDS011;2383;48.632;10.156;2023-05-29T02:41:33;6.72;;;4.75;;
4738;SDS011;2383;48.632;10.156;2023-05-29T02:45:35;8.13;;;4.65;;
4738;SDS011;2383;48.632;10.156;2023-05-29T02:49:37;8.10;;;4.47;;
4738;SDS011;2383;48.632;10.156;2023-05-29T02:53:39;8.40;;;4.13;;
4738;SDS011;2383;48.632;10.156;2023-05-29T02:57:41;7.35;;;4.50;;
4738;SDS011;2383;48.632;10.156;2023-05-29T03:01:43;8.65;;;4.43;;
4738;SDS011;2383;48.632;10.156;2023-05-29T03:05:46;7.07;;;4.32;;
4738;SDS011;2383;48.632;10.156;2023-05-29T03:09:49;6.28;;;4.38;;
4738;SDS011;2383;48.632;10.156;2023-05-29T03:13:51;6.40;;;4.00;;
4738;SDS011;2383;48.632;10.156;2023-05-29T03:17:53;9.77;;;4.40;;
4738;SDS011;2383;48.632;10.156;2023-05-29T03:22:00;7.82;;;4.45;;
4738;SDS011;2383;48.632;10.156;2023-05-29T03:26:04;9.68;;;4.50;;
4738;SDS011;2383;48.632;10.156;2023-05-29T03:30:08;9.55;;;4.65;;
4738;SDS011;2383;48.632;10.156;2023-05-29T03:34:12;9.18;;;4.95;;
4738;SDS011;2383;48.632;10.156;2023-05-29T03:38:17;6.15;;;3.92;;
4738;SDS011;2383;48.632;10.156;2023-05-29T03:42:19;8.45;;;4.07;;
4738;SDS011;2383;48.632;10.156;2023-05-29T03:46:24;9.30;;;4.80;;
4738;SDS011;2383;48.632;10.156;2023-05-29T03:50:27;9.18;;;4.85;;
4738;SDS011;2383;48.632;10.156;2023-05-29T03:54:29;6.88;;;4.47;;
4738;SDS011;2383;48.632;10.156;2023-05-29T03:58:34;8.00;;;4.63;;
4738;SDS011;2383;48.632;10.156;2023-05-29T04:02:37;10.37;;;4.93;;
4738;SDS011;2383;48.632;10.156;2023-05-29T04:06:40;7.25;;;4.60;;
4738;SDS011;2383;48.632;10.156;2023-05-29T04:10:42;7.53;;;4.63;;
4738;SDS011;2383;48.632;10.156;2023-05-29T04:14:45;8.83;;;4.60;;
4738;SDS011;2383;48.632;10.156;2023-05-29T04:18:47;9.73;;;4.88;;
4738;SDS011;2383;48.632;10.156;2023-05-29T04:22:49;8.75;;;5.03;;
4738;SDS011;2383;48.632;10.156;2023-05-29T04:26:53;10.48;;;4.68;;
4738;SDS011;2383;48.632;10.156;2023-05-29T04:30:55;9.52;;;4.95;;
4738;SDS011;2383;48.632;10.156;2023-05-29T04:34:58;10.18;;;5.13;;
4738;SDS011;2383;48.632;10.156;2023-05-29T04:39:07;8.27;;;4.50;;
4738;SDS011;2383;48.632;10.156;2023-05-29T04:43:09;11.05;;;5.07;;
4738;SDS011;2383;48.632;10.156;2023-05-29T04:47:44;6.55;;;4.50;;
4738;SDS011;2383;48.632;10.156;2023-05-29T04:51:46;6.43;;;4.72;;
4738;SDS011;2383;48.632;10.156;2023-05-29T04:55:49;6.75;;;4.72;;
4738;SDS011;2383;48.632;10.156;2023-05-29T04:59:51;8.15;;;5.38;;
4738;SDS011;2383;48.632;10.156;2023-05-29T05:03:53;7.85;;;5.07;;
4738;SDS011;2383;48.632;10.156;2023-05-29T05:07:57;7.05;;;4.75;;
4738;SDS011;2383;48.632;10.156;2023-05-29T05:11:59;7.88;;;4.45;;
4738;SDS011;2383;48.632;10.156;2023-05-29T05:16:03;6.32;;;4.57;;
4738;SDS011;2383;48.632;10.156;2023-05-29T05:20:07;8.48;;;4.57;;
4738;SDS011;2383;48.632;10.156;2023-05-29T05:24:10;7.53;;;4.95;;
4738;SDS011;2383;48.632;10.156;2023-05-29T05:28:14;7.63;;;4.57;;
4738;SDS011;2383;48.632;10.156;2023-05-29T05:32:16;7.22;;;4.80;;
4738;SDS011;2383;48.632;10.156;2023-05-29T05:36:21;9.88;;;5.13;;
4738;SDS011;2383;48.632;10.156;2023-05-29T05:40:30;7.78;;;4.90;;
4738;SDS011;2383;48.632;10.156;2023-05-29T05:44:39;7.78;;;4.68;;
4738;SDS011;2383;48.632;10.156;2023-05-29T05:48:45;6.82;;;4.93;;
4738;SDS011;2383;48.632;10.156;2023-05-29T05:52:47;6.40;;;4.82;;
4738;SDS011;2383;48.632;10.156;2023-05-29T05:56:50;12.50;;;4.90;;
4738;SDS011;2383;48.632;10.156;2023-05-29T06:00:53;7.70;;;4.88;;
4738;SDS011;2383;48.632;10.156;2023-05-29T06:04:56;9.88;;;5.13;;
4738;SDS011;2383;48.632;10.156;2023-05-29T06:08:58;7.03;;;5.22;;
4738;SDS011;2383;48.632;10.156;2023-05-29T06:13:02;8.57;;;4.10;;
4738;SDS011;2383;48.632;10.156;2023-05-29T06:17:14;7.25;;;4.38;;
4738;SDS011;2383;48.632;10.156;2023-05-29T06:21:17;5.82;;;4.47;;
4738;SDS011;2383;48.632;10.156;2023-05-29T06:25:25;9.10;;;4.50;;
4738;SDS011;2383;48.632;10.156;2023-05-29T06:29:34;7.80;;;3.75;;
4738;SDS011;2383;48.632;10.156;2023-05-29T06:33:36;7.50;;;4.20;;
4738;SDS011;2383;48.632;10.156;2023-05-29T06:37:40;8.05;;;4.15;;
4738;SDS011;2383;48.632;10.156;2023-05-29T06:41:42;8.07;;;4.13;;
4738;SDS011;2383;48.632;10.156;2023-05-29T06:45:46;8.50;;;5.15;;
4738;SDS011;2383;48.632;10.156;2023-05-29T06:49:48;8.52;;;4.20;;
4738;SDS011;2383;48.632;10.156;2023-05-29T06:53:50;6.75;;;4.43;;
4738;SDS011;2383;48.632;10.156;2023-05-29T06:57:54;7.60;;;4.28;;
4738;SDS011;2383;48.632;10.156;2023-05-29T07:01:57;8.48;;;4.80;;
4738;SDS011;2383;48.632;10.156;2023-05-29T07:06:01;7.00;;;4.55;;
4738;SDS011;2383;48.632;10.156;2023-05-29T07:10:04;6.25;;;4.57;;
4738;SDS011;2383;48.632;10.156;2023-05-29T07:14:07;7.45;;;4.70;;
4738;SDS011;2383;48.632;10.156;2023-05-29T07:18:09;9.15;;;4.78;;
4738;SDS011;2383;48.632;10.156;2023-05-29T07:22:11;8.27;;;4.63;;
4738;SDS011;2383;48.632;10.156;2023-05-29T07:26:14;8.73;;;4.63;;
4738;SDS011;2383;48.632;10.156;2023-05-29T07:30:16;7.40;;;4.32;;
4738;SDS011;2383;48.632;10.156;2023-05-29T07:34:20;9.45;;;4.47;;
4738;SDS011;2383;48.632;10.156;2023-05-29T07:38:23;7.68;;;4.40;;
4738;SDS011;2383;48.632;10.156;2023-05-29T07:42:24;8.25;;;4.45;;
4738;SDS011;2383;48.632;10.156;2023-05-29T07:46:27;6.97;;;4.30;;
4738;SDS011;2383;48.632;10.156;2023-05-29T07:50:45;6.90;;;4.43;;
4738;SDS011;2383;48.632;10.156;2023-05-29T07:54:49;10.57;;;4.95;;
4738;SDS011;2383;48.632;10.156;2023-05-29T07:58:52;10.82;;;4.45;;
4738;SDS011;2383;48.632;10.156;2023-05-29T08:02:56;7.10;;;4.30;;
4738;SDS011;2383;48.632;10.156;2023-05-29T08:07:00;7.30;;;4.10;;
4738;SDS011;2383;48.632;10.156;2023-05-29T08:11:03;11.50;;;4.70;;
4738;SDS011;2383;48.632;10.156;2023-05-29T08:15:05;7.85;;;4.15;;
4738;SDS011;2383;48.632;10.156;2023-05-29T08:19:08;8.20;;;4.38;;
4738;SDS011;2383;48.632;10.156;2023-05-29T08:23:10;6.47;;;4.10;;
4738;SDS011;2383;48.632;10.156;2023-05-29T08:27:12;9.52;;;4.70;;
4738;SDS011;2383;48.632;10.156;2023-05-29T08:31:15;11.60;;;4.85;;
4738;SDS011;2383;48.632;10.156;2023-05-29T08:35:18;9.70;;;4.60;;
4738;SDS011;2383;48.632;10.156;2023-05-29T08:39:20;9.32;;;4.95;;
4738;SDS011;2383;48.632;10.156;2023-05-29T08:43:22;7.53;;;4.30;;
4738;SDS011;2383;48.632;10.156;2023-05-29T08:47:26;8.02;;;4.30;;
4738;SDS011;2383;48.632;10.156;2023-05-29T08:51:31;5.50;;;3.83;;
4738;SDS011;2383;48.632;10.156;2023-05-29T08:55:37;6.38;;;3.53;;
4738;SDS011;2383;48.632;10.156;2023-05-29T08:59:41;7.78;;;3.38;;
4738;SDS011;2383;48.632;10.156;2023-05-29T09:03:44;10.10;;;4.18;;
4738;SDS011;2383;48.632;10.156;2023-05-29T09:07:47;9.38;;;3.58;;
4738;SDS011;2383;48.632;10.156;2023-05-29T09:11:51;7.10;;;4.10;;
4738;SDS011;2383;48.632;10.156;2023-05-29T09:16:01;7.55;;;3.63;;
4738;SDS011;2383;48.632;10.156;2023-05-29T09:20:14;7.75;;;3.58;;
4738;SDS011;2383;48.632;10.156;2023-05-29T09:24:18;5.38;;;3.42;;
4738;SDS011;2383;48.632;10.156;2023-05-29T09:28:21;4.32;;;2.88;;
4738;SDS011;2383;48.632;10.156;2023-05-29T09:32:25;6.15;;;3.03;;
4738;SDS011;2383;48.632;10.156;2023-05-29T09:36:35;6.38;;;3.28;;
4738;SDS011;2383;48.632;10.156;2023-05-29T09:40:40;5.15;;;3.20;;
4738;SDS011;2383;48.632;10.156;2023-05-29T09:44:43;4.90;;;3.72;;
4738;SDS011;2383;48.632;10.156;2023-05-29T09:48:48;5.13;;;3.00;;
4738;SDS011;2383;48.632;10.156;2023-05-29T09:52:50;7.47;;;3.15;;
4738;SDS011;2383;48.632;10.156;2023-05-29T09:56:55;5.20;;;2.60;;
4738;SDS011;2383;48.632;10.156;2023-05-29T10:00:59;6.55;;;2.95;;
4738;SDS011;2383;48.632;10.156;2023-05-29T10:05:02;8.35;;;3.22;;
4738;SDS011;2383;48.632;10.156;2023-05-29T10:09:08;4.47;;;2.95;;
4738;SDS011;2383;48.632;10.156;2023-05-29T10:13:13;3.97;;;2.95;;
4738;SDS011;2383;48.632;10.156;2023-05-29T10:17:16;5.47;;;3.28;;
4738;SDS011;2383;48.632;10.156;2023-05-29T10:21:24;5.45;;;3.53;;
4738;SDS011;2383;48.632;10.156;2023-05-29T10:25:32;6.47;;;2.95;;
4738;SDS011;2383;48.632;10.156;2023-05-29T10:38:15;5.68;;;3.30;;
4738;SDS011;2383;48.632;10.156;2023-05-29T10:50:49;4.50;;;2.88;;
4738;SDS011;2383;48.632;10.156;2023-05-29T10:54:54;5.70;;;3.13;;
4738;SDS011;2383;48.632;10.156;2023-05-29T10:58:58;5.22;;;3.33;;
4738;SDS011;2383;48.632;10.156;2023-05-29T11:03:03;6.63;;;3.20;;
4738;SDS011;2383;48.632;10.156;2023-05-29T11:07:05;5.47;;;2.97;;
4738;SDS011;2383;48.632;10.156;2023-05-29T11:11:11;3.53;;;3.00;;
4738;SDS011;2383;48.632;10.156;2023-05-29T11:15:17;5.43;;;2.97;;
4738;SDS011;2383;48.632;10.156;2023-05-29T11:19:19;3.67;;;2.80;;
4738;SDS011;2383;48.632;10.156;2023-05-29T11:23:21;3.53;;;2.58;;
4738;SDS011;2383;48.632;10.156;2023-05-29T11:27:26;5.28;;;3.47;;
4738;SDS011;2383;48.632;10.156;2023-05-29T11:31:29;6.60;;;4.03;;
4738;SDS011;2383;48.632;10.156;2023-05-29T11:35:36;5.88;;;3.03;;
4738;SDS011;2383;48.632;10.156;2023-05-29T11:39:41;5.22;;;2.83;;
4738;SDS011;2383;48.632;10.156;2023-05-29T11:43:43;5.72;;;2.83;;
4738;SDS011;2383;48.632;10.156;2023-05-29T11:47:54;4.95;;;3.00;;
4738;SDS011;2383;48.632;10.156;2023-05-29T11:52:10;5.00;;;3.10;;
4738;SDS011;2383;48.632;10.156;2023-05-29T11:56:15;6.35;;;3.33;;
4738;SDS011;2383;48.632;10.156;2023-05-29T12:00:18;6.75;;;3.22;;
4738;SDS011;2383;48.632;10.156;2023-05-29T12:04:20;6.60;;;3.20;;
4738;SDS011;2383;48.632;10.156;2023-05-29T12:08:23;5.70;;;3.33;;
4738;SDS011;2383;48.632;10.156;2023-05-29T12:12:26;5.45;;;3.15;;
4738;SDS011;2383;48.632;10.156;2023-05-29T12:16:31;4.93;;;3.13;;
4738;SDS011;2383;48.632;10.156;2023-05-29T12:20:35;3.53;;;2.83;;
4738;SDS011;2383;48.632;10.156;2023-05-29T12:24:37;8.10;;;3.33;;
4738;SDS011;2383;48.632;10.156;2023-05-29T12:28:44;5.50;;;3.17;;
4738;SDS011;2383;48.632;10.156;2023-05-29T12:32:48;7.20;;;3.67;;
4738;SDS011;2383;48.632;10.156;2023-05-29T12:36:51;3.85;;;2.95;;
4738;SDS011;2383;48.632;10.156;2023-05-29T12:40:53;7.95;;;3.10;;
4738;SDS011;2383;48.632;10.156;2023-05-29T12:44:56;6.22;;;3.03;;
4738;SDS011;2383;48.632;10.156;2023-05-29T12:49:11;5.43;;;2.83;;
4738;SDS011;2383;48.632;10.156;2023-05-29T12:53:14;5.43;;;3.33;;
4738;SDS011;2383;48.632;10.156;2023-05-29T12:57:17;4.90;;;3.47;;
4738;SDS011;2383;48.632;10.156;2023-05-29T13:01:19;4.43;;;3.22;;
4738;SDS011;2383;48.632;10.156;2023-05-29T13:05:23;7.85;;;3.58;;
4738;SDS011;2383;48.632;10.156;2023-05-29T13:09:25;5.75;;;3.05;;
4738;SDS011;2383;48.632;10.156;2023-05-29T13:13:28;6.97;;;3.55;;
4738;SDS011;2383;48.632;10.156;2023-05-29T13:17:30;7.57;;;3.83;;
4738;SDS011;2383;48.632;10.156;2023-05-29T13:21:35;4.60;;;2.97;;
4738;SDS011;2383;48.632;10.156;2023-05-29T13:25:37;4.03;;;3.08;;
4738;SDS011;2383;48.632;10.156;2023-05-29T13:29:40;8.10;;;3.20;;
4738;SDS011;2383;48.632;10.156;2023-05-29T13:33:42;5.18;;;3.30;;
4738;SDS011;2383;48.632;10.156;2023-05-29T13:37:44;4.00;;;3.08;;
4738;SDS011;2383;48.632;10.156;2023-05-29T13:41:46;4.43;;;3.45;;
4738;SDS011;2383;48.632;10.156;2023-05-29T13:45:48;7.20;;;3.30;;
4738;SDS011;2383;48.632;10.156;2023-05-29T13:49:51;11.55;;;3.35;;
4738;SDS011;2383;48.632;10.156;2023-05-29T13:53:53;3.97;;;3.00;;
4738;SDS011;2383;48.632;10.156;2023-05-29T13:57:55;4.45;;;3.10;;
4738;SDS011;2383;48.632;10.156;2023-05-29T14:01:59;4.93;;;3.30;;
4738;SDS011;2383;48.632;10.156;2023-05-29T14:06:01;5.75;;;3.38;;
4738;SDS011;2383;48.632;10.156;2023-05-29T14:10:06;4.03;;;3.10;;
4738;SDS011;2383;48.632;10.156;2023-05-29T14:14:11;3.45;;;2.83;;
4738;SDS011;2383;48.632;10.156;2023-05-29T14:18:13;3.90;;;3.00;;
4738;SDS011;2383;48.632;10.156;2023-05-29T14:22:15;3.90;;;2.80;;
4738;SDS011;2383;48.632;10.156;2023-05-29T14:26:17;6.47;;;2.80;;
4738;SDS011;2383;48.632;10.156;2023-05-29T14:30:19;3.55;;;3.08;;
4738;SDS011;2383;48.632;10.156;2023-05-29T14:34:21;4.45;;;3.10;;
4738;SDS011;2383;48.632;10.156;2023-05-29T14:38:24;5.40;;;3.45;;
4738;SDS011;2383;48.632;10.156;2023-05-29T14:42:27;4.30;;;3.42;;
4738;SDS011;2383;48.632;10.156;2023-05-29T14:46:30;6.18;;;3.35;;
4738;SDS011;2383;48.632;10.156;2023-05-29T14:50:35;3.85;;;3.10;;
4738;SDS011;2383;48.632;10.156;2023-05-29T14:54:37;4.75;;;3.25;;
4738;SDS011;2383;48.632;10.156;2023-05-29T14:58:39;4.32;;;2.92;;
4738;SDS011;2383;48.632;10.156;2023-05-29T15:02:42;4.93;;;3.30;;
4738;SDS011;2383;48.632;10.156;2023-05-29T15:06:45;4.70;;;3.30;;
4738;SDS011;2383;48.632;10.156;2023-05-29T15:10:55;8.18;;;3.42;;
4738;SDS011;2383;48.632;10.156;2023-05-29T15:14:57;5.30;;;3.28;;
4738;SDS011;2383;48.632;10.156;2023-05-29T15:19:00;3.67;;;2.75;;
4738;SDS011;2383;48.632;10.156;2023-05-29T15:23:02;5.45;;;2.78;;
4738;SDS011;2383;48.632;10.156;2023-05-29T15:27:04;3.85;;;2.65;;
4738;SDS011;2383;48.632;10.156;2023-05-29T15:31:06;4.20;;;2.90;;
4738;SDS011;2383;48.632;10.156;2023-05-29T15:35:09;5.05;;;3.20;;
4738;SDS011;2383;48.632;10.156;2023-05-29T15:39:13;5.25;;;3.20;;
4738;SDS011;2383;48.632;10.156;2023-05-29T15:43:16;3.85;;;2.72;;
4738;SDS011;2383;48.632;10.156;2023-05-29T15:47:18;8.02;;;3.25;;
4738;SDS011;2383;48.632;10.156;2023-05-29T15:51:20;6.57;;;3.50;;
4738;SDS011;2383;48.632;10.156;2023-05-29T15:55:22;3.60;;;3.00;;
4738;SDS011;2383;48.632;10.156;2023-05-29T15:59:25;3.88;;;2.72;;
4738;SDS011;2383;48.632;10.156;2023-05-29T16:03:27;4.30;;;3.00;;
4738;SDS011;2383;48.632;10.156;2023-05-29T16:07:30;4.97;;;3.00;;
4738;SDS011;2383;48.632;10.156;2023-05-29T16:11:32;3.90;;;2.80;;
4738;SDS011;2383;48.632;10.156;2023-05-29T16:15:34;6.07;;;2.60;;
4738;SDS011;2383;48.632;10.156;2023-05-29T16:19:36;3.85;;;3.13;;
4738;SDS011;2383;48.632;10.156;2023-05-29T16:23:38;4.75;;;2.70;;
4738;SDS011;2383;48.632;10.156;2023-05-29T16:27:40;4.18;;;2.80;;
4738;SDS011;2383;48.632;10.156;2023-05-29T16:31:43;7.05;;;3.30;;
4738;SDS011;2383;48.632;10.156;2023-05-29T16:35:46;5.13;;;3.10;;
4738;SDS011;2383;48.632;10.156;2023-05-29T16:39:48;5.80;;;2.70;;
4738;SDS011;2383;48.632;10.156;2023-05-29T16:43:50;3.88;;;2.72;;
4738;SDS011;2383;48.632;10.156;2023-05-29T16:47:52;5.22;;;3.47;;
4738;SDS011;2383;48.632;10.156;2023-05-29T16:51:54;4.88;;;3.35;;
4738;SDS011;2383;48.632;10.156;2023-05-29T16:55:57;4.28;;;2.92;;
4738;SDS011;2383;48.632;10.156;2023-05-29T16:59:59;4.25;;;3.38;;
4738;SDS011;2383;48.632;10.156;2023-05-29T17:04:01;6.25;;;4.00;;
4738;SDS011;2383;48.632;10.156;2023-05-29T17:08:03;4.95;;;3.70;;
4738;SDS011;2383;48.632;10.156;2023-05-29T17:12:10;4.72;;;3.60;;
4738;SDS011;2383;48.632;10.156;2023-05-29T17:16:13;7.35;;;3.85;;
4738;SDS011;2383;48.632;10.156;2023-05-29T17:20:15;4.70;;;3.42;;
4738;SDS011;2383;48.632;10.156;2023-05-29T17:24:17;5.63;;;3.05;;
4738;SDS011;2383;48.632;10.156;2023-05-29T17:28:20;6.38;;;3.65;;
4738;SDS011;2383;48.632;10.156;2023-05-29T17:32:22;8.25;;;3.78;;
4738;SDS011;2383;48.632;10.156;2023-05-29T17:36:24;6.28;;;3.38;;
4738;SDS011;2383;48.632;10.156;2023-05-29T17:40:26;5.15;;;3.45;;
4738;SDS011;2383;48.632;10.156;2023-05-29T17:44:29;8.40;;;3.65;;
4738;SDS011;2383;48.632;10.156;2023-05-29T17:48:31;7.32;;;3.45;;
4738;SDS011;2383;48.632;10.156;2023-05-29T17:52:33;5.32;;;3.85;;
4738;SDS011;2383;48.632;10.156;2023-05-29T17:56:36;5.13;;;3.33;;
4738;SDS011;2383;48.632;10.156;2023-05-29T18:00:39;13.85;;;3.88;;
4738;SDS011;2383;48.632;10.156;2023-05-29T18:04:41;5.55;;;3.50;;
4738;SDS011;2383;48.632;10.156;2023-05-29T18:08:43;5.00;;;3.30;;
4738;SDS011;2383;48.632;10.156;2023-05-29T18:12:46;4.88;;;3.28;;
4738;SDS011;2383;48.632;10.156;2023-05-29T18:16:48;5.40;;;3.28;;
4738;SDS011;2383;48.632;10.156;2023-05-29T18:20:50;4.90;;;3.50;;
4738;SDS011;2383;48.632;10.156;2023-05-29T18:24:53;4.32;;;3.30;;
4738;SDS011;2383;48.632;10.156;2023-05-29T18:28:55;4.70;;;3.20;;
4738;SDS011;2383;48.632;10.156;2023-05-29T18:33:03;5.40;;;3.30;;
4738;SDS011;2383;48.632;10.156;2023-05-29T18:37:06;5.05;;;3.20;;
4738;SDS011;2383;48.632;10.156;2023-05-29T18:41:10;4.95;;;3.60;;
4738;SDS011;2383;48.632;10.156;2023-05-29T18:45:12;6.13;;;3.70;;
4738;SDS011;2383;48.632;10.156;2023-05-29T18:49:14;6.80;;;3.67;;
4738;SDS011;2383;48.632;10.156;2023-05-29T18:53:17;7.60;;;3.58;;
4738;SDS011;2383;48.632;10.156;2023-05-29T18:57:19;6.32;;;3.13;;
4738;SDS011;2383;48.632;10.156;2023-05-29T19:01:21;4.13;;;3.10;;
4738;SDS011;2383;48.632;10.156;2023-05-29T19:05:34;4.63;;;3.20;;
4738;SDS011;2383;48.632;10.156;2023-05-29T19:09:36;5.97;;;3.67;;
4738;SDS011;2383;48.632;10.156;2023-05-29T19:13:39;3.35;;;3.00;;
4738;SDS011;2383;48.632;10.156;2023-05-29T19:17:41;4.50;;;3.47;;
4738;SDS011;2383;48.632;10.156;2023-05-29T19:21:43;5.78;;;3.70;;
4738;SDS011;2383;48.632;10.156;2023-05-29T19:25:45;9.98;;;3.95;;
4738;SDS011;2383;48.632;10.156;2023-05-29T19:29:48;5.00;;;3.38;;
4738;SDS011;2383;48.632;10.156;2023-05-29T19:33:50;5.15;;;3.67;;
4738;SDS011;2383;48.632;10.156;2023-05-29T19:37:52;4.75;;;3.53;;
4738;SDS011;2383;48.632;10.156;2023-05-29T19:41:54;6.25;;;3.20;;
4738;SDS011;2383;48.632;10.156;2023-05-29T19:45:56;4.53;;;3.50;;
4738;SDS011;2383;48.632;10.156;2023-05-29T19:50:07;6.78;;;3.85;;
4738;SDS011;2383;48.632;10.156;2023-05-29T19:54:10;5.15;;;3.72;;
4738;SDS011;2383;48.632;10.156;2023-05-29T19:58:12;5.93;;;3.63;;
4738;SDS011;2383;48.632;10.156;2023-05-29T20:02:14;10.00;;;3.88;;
4738;SDS011;2383;48.632;10.156;2023-05-29T20:06:16;5.90;;;3.50;;
4738;SDS011;2383;48.632;10.156;2023-05-29T20:10:19;5.53;;;3.33;;
4738;SDS011;2383;48.632;10.156;2023-05-29T20:14:21;5.43;;;3.75;;
4738;SDS011;2383;48.632;10.156;2023-05-29T20:18:23;6.07;;;3.80;;
4738;SDS011;2383;48.632;10.156;2023-05-29T20:22:25;6.13;;;3.42;;
4738;SDS011;2383;48.632;10.156;2023-05-29T20:26:27;4.95;;;3.30;;
4738;SDS011;2383;48.632;10.156;2023-05-29T20:30:30;5.03;;;3.30;;
4738;SDS011;2383;48.632;10.156;2023-05-29T20:34:32;6.32;;;3.35;;
4738;SDS011;2383;48.632;10.156;2023-05-29T20:38:34;4.90;;;3.58;;
4738;SDS011;2383;48.632;10.156;2023-05-29T20:42:39;5.65;;;3.60;;
4738;SDS011;2383;48.632;10.156;2023-05-29T20:46:43;6.20;;;3.67;;
4738;SDS011;2383;48.632;10.156;2023-05-29T20:50:46;5.63;;;3.50;;
4738;SDS011;2383;48.632;10.156;2023-05-29T20:54:48;7.93;;;3.40;;
4738;SDS011;2383;48.632;10.156;2023-05-29T20:58:50;7.10;;;4.30;;
4738;SDS011;2383;48.632;10.156;2023-05-29T21:02:52;5.05;;;3.42;;
4738;SDS011;2383;48.632;10.156;2023-05-29T21:06:55;5.53;;;3.65;;
4738;SDS011;2383;48.632;10.156;2023-05-29T21:10:57;9.23;;;5.45;;
4738;SDS011;2383;48.632;10.156;2023-05-29T21:15:00;10.65;;;5.15;;
4738;SDS011;2383;48.632;10.156;2023-05-29T21:19:02;8.35;;;4.78;;
4738;SDS011;2383;48.632;10.156;2023-05-29T21:23:04;8.48;;;3.58;;
4738;SDS011;2383;48.632;10.156;2023-05-29T21:27:07;4.13;;;3.22;;
4738;SDS011;2383;48.632;10.156;2023-05-29T21:31:10;6.13;;;3.80;;
4738;SDS011;2383;48.632;10.156;2023-05-29T21:35:13;5.32;;;3.20;;
4738;SDS011;2383;48.632;10.156;2023-05-29T21:39:16;12.02;;;3.70;;
4738;SDS011;2383;48.632;10.156;2023-05-29T21:43:18;5.35;;;3.50;;
4738;SDS011;2383;48.632;10.156;2023-05-29T21:47:20;8.48;;;3.50;;
4738;SDS011;2383;48.632;10.156;2023-05-29T21:51:22;6.15;;;3.25;;
4738;SDS011;2383;48.632;10.156;2023-05-29T21:55:24;10.82;;;3.60;;
4738;SDS011;2383;48.632;10.156;2023-05-29T21:59:27;6.25;;;3.55;;
4738;SDS011;2383;48.632;10.156;2023-05-29T22:03:29;6.00;;;3.53;;
4738;SDS011;2383;48.632;10.156;2023-05-29T22:07:31;6.75;;;3.03;;
4738;SDS011;2383;48.632;10.156;2023-05-29T22:11:34;4.57;;;3.33;;
4738;SDS011;2383;48.632;10.156;2023-05-29T22:15:39;5.57;;;3.50;;
4738;SDS011;2383;48.632;10.156;2023-05-29T22:19:41;4.38;;;2.92;;
4738;SDS011;2383;48.632;10.156;2023-05-29T22:23:43;7.03;;;3.53;;
4738;SDS011;2383;48.632;10.156;2023-05-29T22:27:46;4.97;;;3.65;;
4738;SDS011;2383;48.632;10.156;2023-05-29T22:31:48;5.05;;;3.42;;
4738;SDS011;2383;48.632;10.156;2023-05-29T22:35:51;10.25;;;3.70;;
4738;SDS011;2383;48.632;10.156;2023-05-29T22:39:55;5.55;;;3.42;;
4738;SDS011;2383;48.632;10.156;2023-05-29T22:43:57;5.28;;;3.50;;
4738;SDS011;2383;48.632;10.156;2023-05-29T22:47:59;4.13;;;3.03;;
4738;SDS011;2383;48.632;10.156;2023-05-29T22:52:02;7.45;;;3.58;;
4738;SDS011;2383;48.632;10.156;2023-05-29T22:56:04;4.35;;;3.10;;
4738;SDS011;2383;48.632;10.156;2023-05-29T23:00:07;6.65;;;3.33;;
4738;SDS011;2383;48.632;10.156;2023-05-29T23:04:13;5.43;;;3.50;;
4738;SDS011;2383;48.632;10.156;2023-05-29T23:08:15;7.75;;;3.25;;
4738;SDS011;2383;48.632;10.156;2023-05-29T23:12:18;5.65;;;3.35;;
4738;SDS011;2383;48.632;10.156;2023-05-29T23:16:21;6.13;;;3.67;;
4738;SDS011;2383;48.632;10.156;2023-05-29T23:20:23;8.20;;;4.35;;
4738;SDS011;2383;48.632;10.156;2023-05-29T23:24:25;5.90;;;4.15;;
4738;SDS011;2383;48.632;10.156;2023-05-29T23:28:27;7.65;;;3.65;;
4738;SDS011;2383;48.632;10.156;2023-05-29T23:32:30;6.03;;;3.70;;
4738;SDS011;2383;48.632;10.156;2023-05-29T23:36:32;6.65;;;3.65;;
4738;SDS011;2383;48.632;10.156;2023-05-29T23:40:34;6.38;;;3.80;;
4738;SDS011;2383;48.632;10.156;2023-05-29T23:44:37;6.05;;;3.63;;
4738;SDS011;2383;48.632;10.156;2023-05-29T23:48:39;6.78;;;3.42;;
4738;SDS011;2383;48.632;10.156;2023-05-29T23:52:42;8.13;;;3.95;;
4738;SDS011;2383;48.632;10.156;2023-05-29T23:56:45;5.57;;;3.85;;
